createdAt,value
2019-02-27T00:00:01.795Z,0
2019-02-27T00:00:43.928Z,0
2019-02-27T00:01:22.621Z,0
2019-02-27T00:02:03.043Z,0
2019-02-27T00:02:43.420Z,0
2019-02-27T00:03:23.793Z,0
2019-02-27T00:04:04.199Z,0
2019-02-27T00:04:44.622Z,0
2019-02-27T00:05:25.041Z,0
2019-02-27T00:06:05.434Z,0
2019-02-27T00:06:47.839Z,0
2019-02-27T00:07:26.217Z,0
2019-02-27T00:08:06.626Z,0
2019-02-27T00:08:47.048Z,0
2019-02-27T00:09:27.433Z,0
2019-02-27T00:10:07.812Z,0
2019-02-27T00:10:48.195Z,0
2019-02-27T00:11:28.584Z,0
2019-02-27T00:12:08.969Z,0
2019-02-27T00:12:51.906Z,0
2019-02-27T00:13:30.398Z,0
2019-02-27T00:14:10.841Z,0
2019-02-27T00:14:51.193Z,0
2019-02-27T00:15:31.596Z,0
2019-02-27T00:16:11.996Z,0
2019-02-27T00:16:52.404Z,0
2019-02-27T00:17:32.812Z,0
2019-02-27T00:18:13.202Z,0
2019-02-27T00:18:53.751Z,0
2019-02-27T00:19:34.004Z,0
2019-02-27T00:20:14.422Z,0
2019-02-27T00:20:54.825Z,0
2019-02-27T00:21:35.221Z,0
2019-02-27T00:22:17.531Z,0
2019-02-27T00:22:56.090Z,0
2019-02-27T00:23:36.428Z,0
2019-02-27T00:24:17.259Z,0
2019-02-27T00:24:57.650Z,0
2019-02-27T00:25:38.069Z,0
2019-02-27T00:26:18.485Z,0
2019-02-27T00:26:58.931Z,0
2019-02-27T00:27:39.311Z,0
2019-02-27T00:28:23.095Z,0
2019-02-27T00:29:00.158Z,0
2019-02-27T00:29:40.549Z,0
2019-02-27T00:30:21.006Z,0
2019-02-27T00:31:02.604Z,0
2019-02-27T00:31:45.101Z,0
2019-02-27T00:32:22.205Z,0
2019-02-27T00:33:02.619Z,0
2019-02-27T00:33:43.027Z,0
2019-02-27T00:34:23.424Z,0
2019-02-27T00:35:06.062Z,0
2019-02-27T00:35:44.259Z,0
2019-02-27T00:36:24.622Z,0
2019-02-27T00:37:05.070Z,0
2019-02-27T00:37:45.414Z,0
2019-02-27T00:38:25.836Z,0
2019-02-27T00:39:06.190Z,0
2019-02-27T00:39:46.615Z,0
2019-02-27T00:40:26.999Z,0
2019-02-27T00:41:11.761Z,0
2019-02-27T00:41:47.766Z,0
2019-02-27T00:42:33.431Z,0
2019-02-27T00:43:08.556Z,0
2019-02-27T00:43:49.946Z,0
2019-02-27T00:44:33.696Z,0
2019-02-27T00:45:10.806Z,0
2019-02-27T00:45:51.192Z,0
2019-02-27T00:46:31.589Z,0
2019-02-27T00:47:11.998Z,0
2019-02-27T00:47:53.170Z,0
2019-02-27T00:48:32.854Z,0
2019-02-27T00:49:13.261Z,0
2019-02-27T00:49:53.679Z,0
2019-02-27T00:50:34.076Z,0
2019-02-27T00:51:14.518Z,0
2019-02-27T00:51:54.919Z,0
2019-02-27T00:52:35.289Z,0
2019-02-27T00:53:15.680Z,0
2019-02-27T00:53:58.293Z,0
2019-02-27T00:54:36.462Z,0
2019-02-27T00:55:16.867Z,0
2019-02-27T00:55:57.266Z,0
2019-02-27T00:56:37.670Z,0
2019-02-27T00:57:20.415Z,0
2019-02-27T00:57:58.451Z,0
2019-02-27T00:58:38.850Z,0
2019-02-27T00:59:19.211Z,0
2019-02-27T00:59:59.602Z,0
2019-02-27T01:00:40.032Z,0
2019-02-27T01:01:20.374Z,0
2019-02-27T01:02:00.803Z,0
2019-02-27T01:02:41.180Z,0
2019-02-27T01:03:25.916Z,0
2019-02-27T01:04:02.469Z,0
2019-02-27T01:04:42.421Z,0
2019-02-27T01:05:22.824Z,0
2019-02-27T01:06:03.231Z,0
2019-02-27T01:06:44.992Z,0
2019-02-27T01:07:23.984Z,0
2019-02-27T01:08:04.361Z,0
2019-02-27T01:08:44.816Z,0
2019-02-27T01:09:25.200Z,0
2019-02-27T01:10:05.617Z,0
2019-02-27T01:10:46.014Z,0
2019-02-27T01:11:26.431Z,0
2019-02-27T01:12:06.829Z,0
2019-02-27T01:12:47.272Z,0
2019-02-27T01:13:28.867Z,0
2019-02-27T01:14:08.041Z,0
2019-02-27T01:14:48.474Z,0
2019-02-27T01:15:28.824Z,0
2019-02-27T01:16:09.251Z,0
2019-02-27T01:16:50.150Z,0
2019-02-27T01:17:30.069Z,0
2019-02-27T01:18:10.464Z,0
2019-02-27T01:18:51.071Z,0
2019-02-27T01:19:31.319Z,0
2019-02-27T01:20:12.047Z,0
2019-02-27T01:20:52.067Z,0
2019-02-27T01:21:32.468Z,0
2019-02-27T01:22:12.883Z,0
2019-02-27T01:22:53.284Z,0
2019-02-27T01:23:33.659Z,0
2019-02-27T01:24:14.946Z,0
2019-02-27T01:24:54.441Z,0
2019-02-27T01:25:34.868Z,0
2019-02-27T01:26:15.266Z,0
2019-02-27T01:26:55.646Z,0
2019-02-27T01:27:38.070Z,0
2019-02-27T01:28:16.471Z,0
2019-02-27T01:28:56.843Z,0
2019-02-27T01:29:37.266Z,0
2019-02-27T01:30:17.655Z,0
2019-02-27T01:30:58.053Z,0
2019-02-27T01:31:38.503Z,0
2019-02-27T01:32:18.857Z,0
2019-02-27T01:33:03.902Z,0
2019-02-27T01:33:40.575Z,0
2019-02-27T01:34:21.091Z,0
2019-02-27T01:35:01.435Z,0
2019-02-27T01:35:41.820Z,0
2019-02-27T01:36:24.490Z,0
2019-02-27T01:37:02.595Z,0
2019-02-27T01:37:43.026Z,0
2019-02-27T01:38:23.361Z,0
2019-02-27T01:39:03.773Z,0
2019-02-27T01:39:44.756Z,0
2019-02-27T01:40:24.605Z,0
2019-02-27T01:41:04.955Z,0
2019-02-27T01:41:45.398Z,0
2019-02-27T01:42:25.767Z,0
2019-02-27T01:43:06.459Z,0
2019-02-27T01:43:46.530Z,0
2019-02-27T01:44:26.882Z,0
2019-02-27T01:45:07.301Z,0
2019-02-27T01:45:47.680Z,0
2019-02-27T01:46:28.435Z,0
2019-02-27T01:47:08.462Z,0
2019-02-27T01:47:59.971Z,0
2019-02-27T01:48:43.559Z,0
2019-02-27T01:49:20.754Z,0
2019-02-27T01:50:02.831Z,0
2019-02-27T01:50:43.218Z,0
2019-02-27T01:51:25.707Z,0
2019-02-27T01:57:02.760Z,0
2019-02-27T01:57:54.962Z,0
2019-02-27T02:00:09.176Z,0
2019-02-27T02:00:49.457Z,0
2019-02-27T02:01:30.130Z,0
2019-02-27T02:02:10.226Z,0
2019-02-27T02:02:50.608Z,0
2019-02-27T02:03:31.054Z,0
2019-02-27T02:04:11.515Z,0
2019-02-27T02:04:53.702Z,0
2019-02-27T02:05:32.309Z,0
2019-02-27T02:06:12.676Z,0
2019-02-27T02:06:53.079Z,0
2019-02-27T02:07:33.460Z,0
2019-02-27T02:08:14.621Z,0
2019-02-27T02:08:54.255Z,0
2019-02-27T02:09:34.678Z,0
2019-02-27T02:10:15.078Z,0
2019-02-27T02:10:55.469Z,0
2019-02-27T02:11:35.890Z,0
2019-02-27T02:12:16.271Z,0
2019-02-27T02:12:56.724Z,0
2019-02-27T02:13:37.062Z,0
2019-02-27T02:14:20.937Z,0
2019-02-27T02:14:57.838Z,0
2019-02-27T02:15:38.228Z,0
2019-02-27T02:16:18.636Z,0
2019-02-27T02:16:59.012Z,0
2019-02-27T02:17:40.990Z,0
2019-02-27T02:18:19.823Z,0
2019-02-27T02:19:00.221Z,0
2019-02-27T02:19:40.639Z,0
2019-02-27T02:20:21.051Z,0
2019-02-27T02:21:01.832Z,0
2019-02-27T02:21:41.815Z,0
2019-02-27T02:22:22.248Z,0
2019-02-27T02:23:02.650Z,0
2019-02-27T02:23:44.866Z,0
2019-02-27T02:24:23.476Z,0
2019-02-27T02:25:03.876Z,0
2019-02-27T02:25:44.301Z,0
2019-02-27T02:26:24.716Z,0
2019-02-27T02:27:07.722Z,0
2019-02-27T02:27:45.529Z,0
2019-02-27T02:28:25.926Z,0
2019-02-27T02:29:06.329Z,0
2019-02-27T02:29:46.724Z,0
2019-02-27T02:30:29.705Z,0
2019-02-27T02:31:07.492Z,0
2019-02-27T02:31:47.918Z,0
2019-02-27T02:32:28.277Z,0
2019-02-27T02:39:54.494Z,0
2019-02-27T02:40:37.443Z,0
2019-02-27T02:41:17.741Z,0
2019-02-27T02:41:58.137Z,0
2019-02-27T02:42:38.787Z,0
2019-02-27T02:43:19.177Z,0
2019-02-27T02:43:59.764Z,0
2019-02-27T02:44:40.067Z,0
2019-02-27T02:45:20.572Z,0
2019-02-27T02:46:00.935Z,0
2019-02-27T02:46:45.267Z,0
2019-02-27T02:47:22.035Z,0
2019-02-27T02:48:02.385Z,0
2019-02-27T02:48:42.856Z,0
2019-02-27T02:49:23.189Z,0
2019-02-27T02:50:03.839Z,0
2019-02-27T02:50:44.217Z,0
2019-02-27T02:51:28.523Z,0
2019-02-27T02:52:05.901Z,0
2019-02-27T02:52:45.952Z,0
2019-02-27T02:53:26.453Z,0
2019-02-27T02:54:06.843Z,0
2019-02-27T02:54:47.405Z,0
2019-02-27T02:55:28.261Z,0
2019-02-27T02:56:09.061Z,0
2019-02-27T02:56:49.477Z,0
2019-02-27T02:57:35.812Z,0
2019-02-27T02:58:11.241Z,0
2019-02-27T02:58:51.078Z,0
2019-02-27T02:59:31.458Z,0
2019-02-27T03:00:11.774Z,0
2019-02-27T03:00:52.272Z,0
2019-02-27T03:01:32.911Z,0
2019-02-27T03:02:13.499Z,0
2019-02-27T03:02:57.420Z,0
2019-02-27T03:03:36.966Z,0
2019-02-27T03:04:14.855Z,0
2019-02-27T03:04:55.333Z,0
2019-02-27T03:05:35.914Z,0
2019-02-27T03:06:16.465Z,0
2019-02-27T03:06:56.888Z,0
2019-02-27T03:07:37.631Z,0
2019-02-27T03:08:20.137Z,0
2019-02-27T03:08:58.486Z,0
2019-02-27T03:09:39.382Z,0
2019-02-27T03:10:19.648Z,0
2019-02-27T03:11:00.191Z,0
2019-02-27T03:11:40.677Z,0
2019-02-27T03:12:21.239Z,0
2019-02-27T03:13:05.750Z,0
2019-02-27T03:13:42.771Z,0
2019-02-27T03:14:22.693Z,0
2019-02-27T03:15:03.156Z,0
2019-02-27T03:15:43.814Z,0
2019-02-27T03:16:24.066Z,0
2019-02-27T03:17:05.568Z,0
2019-02-27T03:17:46.198Z,0
2019-02-27T03:18:29.468Z,0
2019-02-27T03:19:09.773Z,0
2019-02-27T03:19:53.433Z,0
2019-02-27T03:20:33.940Z,0
2019-02-27T03:21:14.612Z,0
2019-02-27T03:21:54.938Z,0
2019-02-27T03:22:40.145Z,0
2019-02-27T03:23:16.530Z,0
2019-02-27T03:23:56.709Z,0
2019-02-27T03:24:37.757Z,0
2019-02-27T03:25:18.248Z,0
2019-02-27T03:25:58.528Z,0
2019-02-27T03:26:39.069Z,0
2019-02-27T03:27:19.840Z,0
2019-02-27T03:28:04.362Z,0
2019-02-27T03:28:41.695Z,0
2019-02-27T03:29:21.724Z,0
2019-02-27T03:30:01.734Z,0
2019-02-27T03:30:42.117Z,0
2019-02-27T03:31:23.718Z,0
2019-02-27T03:32:03.394Z,0
2019-02-27T03:32:43.974Z,0
2019-02-27T03:33:26.941Z,0
2019-02-27T03:34:07.706Z,0
2019-02-27T03:34:50.127Z,0
2019-02-27T03:35:29.053Z,0
2019-02-27T03:36:05.991Z,0
2019-02-27T03:36:46.901Z,0
2019-02-27T03:37:28.243Z,0
2019-02-27T03:38:09.050Z,0
2019-02-27T03:38:49.471Z,0
2019-02-27T03:39:34.290Z,0
2019-02-27T03:40:11.837Z,0
2019-02-27T03:40:51.058Z,0
2019-02-27T03:41:31.658Z,0
2019-02-27T03:42:11.975Z,0
2019-02-27T03:42:53.336Z,0
2019-02-27T03:43:33.789Z,0
2019-02-27T03:44:20.183Z,0
2019-02-27T03:44:56.131Z,0
2019-02-27T03:45:35.170Z,0
2019-02-27T03:46:15.754Z,0
2019-02-27T03:46:56.072Z,0
2019-02-27T03:47:36.468Z,0
2019-02-27T03:48:17.192Z,0
2019-02-27T03:49:02.906Z,0
2019-02-27T03:49:40.928Z,0
2019-02-27T03:50:21.429Z,0
2019-02-27T03:51:01.732Z,0
2019-02-27T03:51:42.158Z,0
2019-02-27T03:52:22.494Z,0
2019-02-27T03:53:03.064Z,0
2019-02-27T03:53:46.378Z,0
2019-02-27T03:54:23.859Z,0
2019-02-27T03:55:04.297Z,0
2019-02-27T03:55:45.029Z,0
2019-02-27T03:56:25.841Z,0
2019-02-27T03:57:06.346Z,0
2019-02-27T03:57:46.603Z,0
2019-02-27T03:58:30.430Z,0
2019-02-27T03:59:09.755Z,0
2019-02-27T03:59:49.910Z,0
2019-02-27T04:00:30.308Z,0
2019-02-27T04:01:11.497Z,0
2019-02-27T04:01:51.825Z,0
2019-02-27T04:02:32.495Z,0
2019-02-27T04:03:16.900Z,0
2019-02-27T04:03:55.213Z,0
2019-02-27T04:04:33.983Z,0
2019-02-27T04:05:14.147Z,0
2019-02-27T04:05:54.681Z,0
2019-02-27T04:06:34.976Z,0
2019-02-27T04:07:15.738Z,0
2019-02-27T04:07:55.830Z,0
2019-02-27T04:08:37.829Z,0
2019-02-27T04:09:19.793Z,0
2019-02-27T04:09:57.456Z,0
2019-02-27T04:10:37.913Z,0
2019-02-27T04:11:18.348Z,0
2019-02-27T04:11:58.789Z,0
2019-02-27T04:12:39.262Z,0
2019-02-27T04:13:26.369Z,0
2019-02-27T04:14:04.626Z,0
2019-02-27T04:14:42.661Z,0
2019-02-27T04:15:23.112Z,0
2019-02-27T04:16:04.274Z,0
2019-02-27T04:16:44.916Z,0
2019-02-27T04:21:07.855Z,0
2019-02-27T04:21:48.232Z,0
2019-02-27T04:22:28.636Z,0
2019-02-27T04:23:12.408Z,0
2019-02-27T04:25:23.997Z,0
2019-02-27T04:26:05.681Z,0
2019-02-27T04:26:44.025Z,0
2019-02-27T04:27:24.415Z,0
2019-02-27T05:07:22.327Z,0
2019-02-27T05:09:22.224Z,0
2019-02-27T05:10:06.834Z,0
2019-02-27T05:10:43.094Z,0
2019-02-27T05:11:26.998Z,0
2019-02-27T05:12:06.743Z,0
2019-02-27T05:12:48.125Z,0
2019-02-27T05:13:27.533Z,0
2019-02-27T05:14:07.902Z,0
2019-02-27T05:14:48.239Z,0
2019-02-27T05:15:28.674Z,0
2019-02-27T05:16:09.055Z,0
2019-02-27T05:16:49.467Z,0
2019-02-27T05:17:29.867Z,0
2019-02-27T05:18:10.282Z,0
2019-02-27T05:18:50.648Z,0
2019-02-27T05:19:31.052Z,0
2019-02-27T05:20:12.541Z,0
2019-02-27T05:20:51.829Z,0
2019-02-27T05:21:32.212Z,0
2019-02-27T05:22:12.641Z,0
2019-02-27T05:22:53.039Z,0
2019-02-27T05:23:34.173Z,0
2019-02-27T05:24:13.908Z,0
2019-02-27T05:24:54.260Z,0
2019-02-27T05:25:34.648Z,0
2019-02-27T05:26:15.077Z,0
2019-02-27T05:26:55.479Z,0
2019-02-27T05:27:35.837Z,0
2019-02-27T05:28:16.241Z,0
2019-02-27T05:28:58.618Z,0
2019-02-27T05:29:38.968Z,0
2019-02-27T05:30:19.393Z,0
2019-02-27T05:30:59.803Z,0
2019-02-27T05:31:40.114Z,0
2019-02-27T05:32:20.560Z,0
2019-02-27T05:33:02.038Z,0
2019-02-27T05:33:41.283Z,0
2019-02-27T05:34:21.701Z,0
2019-02-27T05:35:02.155Z,0
2019-02-27T05:35:42.578Z,0
2019-02-27T05:36:22.925Z,0
2019-02-27T05:37:05.250Z,0
2019-02-27T05:37:43.736Z,0
2019-02-27T05:38:24.121Z,0
2019-02-27T05:39:04.536Z,0
2019-02-27T05:39:44.969Z,0
2019-02-27T05:40:25.916Z,0
2019-02-27T05:41:05.801Z,0
2019-02-27T05:41:46.657Z,0
2019-02-27T05:42:27.046Z,0
2019-02-27T05:43:07.568Z,0
2019-02-27T05:43:48.691Z,0
2019-02-27T05:44:28.234Z,0
2019-02-27T05:45:08.662Z,0
2019-02-27T05:45:49.153Z,0
2019-02-27T05:46:29.629Z,0
2019-02-27T05:47:11.075Z,0
2019-02-27T05:47:50.444Z,0
2019-02-27T05:48:31.784Z,4
2019-02-27T05:49:12.179Z,0
2019-02-27T05:49:52.580Z,0
2019-02-27T05:50:34.209Z,0
2019-02-27T05:51:13.318Z,4
2019-02-27T05:51:53.727Z,0
2019-02-27T05:52:34.103Z,0
2019-02-27T05:53:14.502Z,4
2019-02-27T05:53:56.076Z,4
2019-02-27T05:54:35.304Z,0
2019-02-27T05:55:15.727Z,4
2019-02-27T05:55:56.140Z,4
2019-02-27T05:56:36.579Z,4
2019-02-27T05:57:16.984Z,4
2019-02-27T05:57:57.382Z,4
2019-02-27T05:58:37.749Z,4
2019-02-27T05:59:18.154Z,4
2019-02-27T06:00:02.140Z,4
2019-02-27T06:00:39.929Z,8
2019-02-27T06:01:20.378Z,12
2019-02-27T06:02:00.886Z,8
2019-02-27T06:02:41.879Z,12
2019-02-27T06:03:21.676Z,16
2019-02-27T06:04:02.095Z,16
2019-02-27T06:04:42.502Z,16
2019-02-27T06:05:22.860Z,16
2019-02-27T06:06:03.239Z,20
2019-02-27T06:08:02.204Z,28
2019-02-27T06:08:42.160Z,32
2019-02-27T06:09:24.790Z,32
2019-02-27T06:10:06.858Z,40
2019-02-27T06:10:46.416Z,40
2019-02-27T06:11:29.524Z,44
2019-02-27T06:12:09.827Z,48
2019-02-27T06:12:48.618Z,56
2019-02-27T06:13:28.963Z,60
2019-02-27T06:14:11.174Z,64
2019-02-27T06:14:54.733Z,68
2019-02-27T06:15:31.979Z,76
2019-02-27T06:16:14.299Z,76
2019-02-27T06:16:54.692Z,84
2019-02-27T06:17:43.078Z,92
2019-02-27T06:18:15.592Z,96
2019-02-27T06:18:56.866Z,104
2019-02-27T06:19:36.652Z,108
2019-02-27T06:20:20.675Z,116
2019-02-27T06:32:03.934Z,352
2019-02-27T06:32:45.443Z,428
2019-02-27T06:33:25.884Z,504
2019-02-27T06:34:06.292Z,520
2019-02-27T06:34:46.656Z,556
2019-02-27T06:35:27.065Z,636
2019-02-27T06:36:08.406Z,704
2019-02-27T06:36:48.876Z,780
2019-02-27T06:37:29.271Z,844
2019-02-27T06:38:09.657Z,892
2019-02-27T06:38:50.014Z,968
2019-02-27T06:39:34.326Z,1060
2019-02-27T06:40:12.649Z,1172
2019-02-27T06:40:53.044Z,1260
2019-02-27T06:41:33.455Z,1356
2019-02-27T06:42:13.880Z,1380
2019-02-27T06:42:54.514Z,1504
2019-02-27T06:43:34.685Z,1644
2019-02-27T06:44:18.896Z,1756
2019-02-27T06:44:58.162Z,1844
2019-02-27T06:45:38.476Z,1916
2019-02-27T06:46:19.932Z,2028
2019-02-27T06:46:59.239Z,2096
2019-02-27T06:47:39.728Z,2216
2019-02-27T06:48:20.115Z,2316
2019-02-27T06:49:01.598Z,2356
2019-02-27T06:49:41.302Z,2432
2019-02-27T06:50:25.120Z,2580
2019-02-27T06:51:02.242Z,2692
2019-02-27T06:51:43.594Z,2888
2019-02-27T06:52:23.214Z,3084
2019-02-27T06:53:03.668Z,3244
2019-02-27T06:53:44.011Z,3524
2019-02-27T06:54:24.486Z,3800
2019-02-27T06:55:05.893Z,4108
2019-02-27T06:55:46.369Z,4292
2019-02-27T06:56:26.851Z,4356
2019-02-27T06:57:07.652Z,4100
2019-02-27T06:57:47.642Z,3860
2019-02-27T06:58:28.080Z,3864
2019-02-27T06:59:08.469Z,3884
2019-02-27T06:59:48.952Z,3920
2019-02-27T07:00:29.384Z,3936
2019-02-27T07:01:13.058Z,4028
2019-02-27T07:01:50.359Z,4164
2019-02-27T07:02:30.755Z,4396
2019-02-27T07:03:11.248Z,4600
2019-02-27T07:03:51.793Z,4648
2019-02-27T07:04:32.280Z,4796
2019-02-27T07:05:15.524Z,5208
2019-02-27T07:05:59.790Z,5760
2019-02-27T07:06:40.543Z,6372
2019-02-27T07:07:22.265Z,6700
2019-02-27T07:08:02.130Z,7212
2019-02-27T07:08:42.438Z,7392
2019-02-27T07:09:23.793Z,7536
2019-02-27T07:10:05.140Z,7504
2019-02-27T07:10:45.701Z,7376
2019-02-27T07:11:26.126Z,7360
2019-02-27T07:12:07.282Z,7216
2019-02-27T07:12:47.065Z,7280
2019-02-27T07:13:29.774Z,7304
2019-02-27T07:14:07.937Z,7268
2019-02-27T07:14:48.538Z,7312
2019-02-27T07:15:29.124Z,6412
2019-02-27T07:16:09.780Z,5508
2019-02-27T07:16:51.291Z,4924
2019-02-27T07:17:32.441Z,4684
2019-02-27T07:18:12.576Z,4556
2019-02-27T07:18:53.214Z,4556
2019-02-27T07:19:42.115Z,4600
2019-02-27T07:20:35.198Z,4448
2019-02-27T07:21:17.027Z,4344
2019-02-27T07:21:57.291Z,4372
2019-02-27T07:22:37.202Z,4432
2019-02-27T07:23:22.592Z,4496
2019-02-27T07:23:58.674Z,4596
2019-02-27T07:24:39.091Z,4828
2019-02-27T07:25:19.561Z,4884
2019-02-27T07:26:01.654Z,4748
2019-02-27T07:26:42.337Z,4520
2019-02-27T07:27:22.900Z,4372
2019-02-27T07:28:08.111Z,4344
2019-02-27T07:28:49.864Z,4160
2019-02-27T07:29:30.358Z,4104
2019-02-27T07:30:13.581Z,4088
2019-02-27T07:30:57.436Z,4128
2019-02-27T07:31:37.902Z,4208
2019-02-27T07:32:19.126Z,4376
2019-02-27T07:33:00.863Z,4464
2019-02-27T07:33:41.226Z,4464
2019-02-27T07:34:22.154Z,4444
2019-02-27T07:35:04.925Z,4408
2019-02-27T07:35:44.838Z,4404
2019-02-27T07:36:35.934Z,4384
2019-02-27T07:37:18.228Z,4404
2019-02-27T07:37:59.407Z,4344
2019-02-27T07:38:39.824Z,4408
2019-02-27T07:39:21.132Z,4488
2019-02-27T07:40:08.452Z,4548
2019-02-27T07:40:48.657Z,4664
2019-02-27T07:41:30.449Z,4800
2019-02-27T07:42:12.986Z,4752
2019-02-27T07:42:54.397Z,4668
2019-02-27T07:43:36.206Z,4688
2019-02-27T07:44:18.466Z,4820
2019-02-27T07:44:59.471Z,4896
2019-02-27T07:45:42.651Z,4788
2019-02-27T07:46:22.388Z,4592
2019-02-27T07:47:01.397Z,4676
2019-02-27T07:47:42.130Z,4752
2019-02-27T07:48:26.505Z,4880
2019-02-27T07:49:06.955Z,4796
2019-02-27T07:49:48.260Z,4632
2019-02-27T07:50:27.828Z,4512
2019-02-27T07:51:08.200Z,4468
2019-02-27T07:51:48.721Z,4536
2019-02-27T07:52:32.050Z,4748
2019-02-27T07:53:09.552Z,4984
2019-02-27T07:53:51.353Z,4968
2019-02-27T07:54:31.263Z,4800
2019-02-27T07:55:18.733Z,4580
2019-02-27T07:55:52.145Z,4384
2019-02-27T07:56:34.310Z,3748
2019-02-27T07:57:14.688Z,3236
2019-02-27T07:57:58.331Z,2884
2019-02-27T07:58:35.971Z,2772
2019-02-27T07:59:18.409Z,2796
2019-02-27T07:59:56.751Z,2852
2019-02-27T08:00:37.240Z,2876
2019-02-27T08:01:17.674Z,2776
2019-02-27T08:02:02.063Z,2316
2019-02-27T08:02:38.534Z,1816
2019-02-27T08:03:18.972Z,1568
2019-02-27T08:03:59.457Z,1488
2019-02-27T08:04:40.818Z,1456
2019-02-27T08:05:21.344Z,1440
2019-02-27T08:06:02.384Z,1424
2019-02-27T08:06:42.224Z,1416
2019-02-27T08:07:22.627Z,1404
2019-02-27T08:08:03.570Z,1396
2019-02-27T08:08:54.661Z,1388
2019-02-27T08:10:58.637Z,1376
2019-02-27T08:11:41.753Z,1356
2019-02-27T08:12:23.656Z,1348
2019-02-27T08:13:04.082Z,1348
2019-02-27T08:13:46.377Z,1340
2019-02-27T08:14:26.852Z,1340
2019-02-27T08:15:07.357Z,1332
2019-02-27T08:15:48.384Z,1332
2019-02-27T08:16:28.189Z,1328
2019-02-27T08:17:17.189Z,1328
2019-02-27T08:17:49.284Z,1320
2019-02-27T08:18:30.690Z,1320
2019-02-27T08:19:11.424Z,1320
2019-02-27T08:19:50.557Z,1316
2019-02-27T08:20:30.945Z,1320
2019-02-27T08:21:11.847Z,1316
2019-02-27T08:21:51.838Z,1316
2019-02-27T08:22:32.356Z,1316
2019-02-27T08:23:12.781Z,1316
2019-02-27T08:23:55.112Z,1312
2019-02-27T08:24:34.770Z,1312
2019-02-27T08:25:15.171Z,1312
2019-02-27T08:25:55.558Z,1312
2019-02-27T08:26:36.516Z,1312
2019-02-27T08:27:16.385Z,1312
2019-02-27T08:27:57.121Z,1312
2019-02-27T08:28:37.345Z,1312
2019-02-27T08:29:17.845Z,1308
2019-02-27T08:29:59.753Z,1308
2019-02-27T08:30:38.629Z,1308
2019-02-27T08:31:18.995Z,1308
2019-02-27T08:32:01.141Z,1308
2019-02-27T08:32:39.909Z,1304
2019-02-27T08:33:20.383Z,1308
2019-02-27T08:34:00.726Z,1308
2019-02-27T08:34:41.979Z,1304
2019-02-27T08:35:22.495Z,1304
2019-02-27T08:36:02.788Z,1304
2019-02-27T08:36:43.234Z,1304
2019-02-27T08:37:23.768Z,1304
2019-02-27T08:38:04.112Z,1304
2019-02-27T08:38:44.464Z,1304
2019-02-27T08:39:24.875Z,1304
2019-02-27T08:40:05.263Z,1300
2019-02-27T08:40:45.660Z,1300
2019-02-27T08:41:26.060Z,1300
2019-02-27T08:42:06.521Z,1300
2019-02-27T08:42:46.993Z,1300
2019-02-27T08:43:27.398Z,1300
2019-02-27T08:44:07.826Z,1300
2019-02-27T08:44:48.294Z,1296
2019-02-27T08:45:28.740Z,1300
2019-02-27T08:46:09.123Z,1296
2019-02-27T08:46:49.566Z,1296
2019-02-27T08:47:29.950Z,1296
2019-02-27T08:48:10.440Z,1296
2019-02-27T08:48:50.856Z,1296
2019-02-27T08:49:31.906Z,1296
2019-02-27T08:50:13.732Z,1296
2019-02-27T08:50:52.158Z,1296
2019-02-27T08:51:32.563Z,1292
2019-02-27T08:56:13.495Z,1292
2019-02-27T08:56:53.886Z,1292
2019-02-27T08:57:35.920Z,1288
2019-02-27T08:58:16.320Z,1288
2019-02-27T08:58:56.744Z,1288
2019-02-27T08:59:39.797Z,1288
2019-02-27T09:00:17.696Z,1288
2019-02-27T09:00:58.124Z,1288
2019-02-27T09:01:38.534Z,1284
2019-02-27T09:02:18.942Z,1284
2019-02-27T09:03:02.320Z,1288
2019-02-27T09:03:39.780Z,1284
2019-02-27T09:04:20.238Z,1284
2019-02-27T09:05:00.579Z,1280
2019-02-27T09:05:40.985Z,1280
2019-02-27T09:06:21.442Z,1280
2019-02-27T09:07:02.580Z,1276
2019-02-27T09:07:43.059Z,1276
2019-02-27T09:08:22.652Z,1276
2019-02-27T09:09:03.168Z,1276
2019-02-27T09:09:43.671Z,1276
2019-02-27T09:10:26.297Z,1276
2019-02-27T09:11:06.443Z,1276
2019-02-27T09:11:45.058Z,1272
2019-02-27T09:12:25.607Z,1272
2019-02-27T09:13:06.230Z,1268
2019-02-27T09:13:46.550Z,1272
2019-02-27T09:14:27.247Z,1272
2019-02-27T09:15:07.667Z,1272
2019-02-27T09:15:48.106Z,1272
2019-02-27T09:16:28.500Z,1272
2019-02-27T09:17:08.897Z,1268
2019-02-27T09:17:49.328Z,1268
2019-02-27T09:18:29.739Z,1268
2019-02-27T09:19:10.231Z,1268
2019-02-27T09:19:50.605Z,1268
2019-02-27T09:20:31.060Z,1268
2019-02-27T09:21:11.671Z,1268
2019-02-27T09:21:52.425Z,1268
2019-02-27T09:22:33.782Z,1268
2019-02-27T09:23:13.480Z,1264
2019-02-27T09:23:55.262Z,1264
2019-02-27T09:24:37.701Z,1264
2019-02-27T09:25:23.122Z,1264
2019-02-27T09:26:02.312Z,1260
2019-02-27T09:26:42.330Z,1260
2019-02-27T09:27:21.470Z,1260
2019-02-27T09:28:03.521Z,1260
2019-02-27T09:28:44.454Z,1260
2019-02-27T09:29:23.926Z,1260
2019-02-27T09:30:05.143Z,1256
2019-02-27T09:30:45.344Z,1260
2019-02-27T09:31:25.805Z,1260
2019-02-27T09:32:09.236Z,1256
2019-02-27T09:32:47.684Z,1256
2019-02-27T09:33:28.227Z,1256
2019-02-27T09:34:08.663Z,1256
2019-02-27T09:34:49.013Z,1256
2019-02-27T09:36:49.092Z,1252
2019-02-27T09:37:27.922Z,1252
2019-02-27T09:38:09.053Z,1252
2019-02-27T09:38:50.069Z,1252
2019-02-27T09:39:31.067Z,1252
2019-02-27T09:40:11.292Z,1252
2019-02-27T09:40:52.017Z,1252
2019-02-27T09:41:33.025Z,1252
2019-02-27T09:42:13.107Z,1252
2019-02-27T09:42:53.886Z,1248
2019-02-27T09:43:34.017Z,1248
2019-02-27T09:44:14.606Z,1248
2019-02-27T09:44:55.033Z,1248
2019-02-27T09:45:35.792Z,1248
2019-02-27T09:46:19.438Z,1244
2019-02-27T09:46:57.148Z,1244
2019-02-27T09:47:37.480Z,1248
2019-02-27T09:48:19.299Z,1248
2019-02-27T09:48:59.647Z,1244
2019-02-27T09:49:41.490Z,1244
2019-02-27T09:50:22.068Z,1244
2019-02-27T09:51:04.395Z,1244
2019-02-27T09:51:45.555Z,1244
2019-02-27T09:52:27.765Z,1244
2019-02-27T09:53:06.209Z,1244
2019-02-27T09:53:46.592Z,1244
2019-02-27T09:54:27.002Z,1240
2019-02-27T09:55:07.646Z,1244
2019-02-27T09:55:48.240Z,1240
2019-02-27T09:56:29.787Z,1240
2019-02-27T09:57:09.488Z,1240
2019-02-27T09:57:50.184Z,1240
2019-02-27T09:58:31.656Z,1240
2019-02-27T09:59:12.099Z,1240
2019-02-27T09:59:53.553Z,1236
2019-02-27T10:00:33.366Z,1240
2019-02-27T10:01:13.436Z,1240
2019-02-27T10:01:57.152Z,1236
2019-02-27T10:02:35.826Z,1236
2019-02-27T10:03:19.662Z,1236
2019-02-27T10:03:56.748Z,1236
2019-02-27T10:04:37.212Z,1236
2019-02-27T10:05:17.641Z,1232
2019-02-27T10:05:58.537Z,1232
2019-02-27T10:06:40.378Z,1232
2019-02-27T10:07:19.415Z,1232
2019-02-27T10:07:59.841Z,1232
2019-02-27T10:08:40.252Z,1232
2019-02-27T10:09:20.688Z,1228
2019-02-27T10:10:01.171Z,1228
2019-02-27T10:10:44.701Z,1224
2019-02-27T10:11:22.480Z,1228
2019-02-27T10:12:03.216Z,1228
2019-02-27T10:12:44.746Z,1224
2019-02-27T10:13:24.886Z,1224
2019-02-27T10:14:05.612Z,1224
2019-02-27T10:14:47.865Z,1224
2019-02-27T10:15:26.507Z,1220
2019-02-27T10:16:06.947Z,1220
2019-02-27T10:16:47.391Z,1220
2019-02-27T10:17:28.585Z,1220
2019-02-27T10:18:08.179Z,1220
2019-02-27T10:18:48.590Z,1220
2019-02-27T10:19:29.022Z,1216
2019-02-27T10:20:09.469Z,1216
2019-02-27T10:20:49.938Z,1216
2019-02-27T10:21:30.321Z,1212
2019-02-27T10:22:10.958Z,1212
2019-02-27T10:22:53.167Z,1212
2019-02-27T10:23:34.204Z,1212
2019-02-27T10:24:14.876Z,1208
2019-02-27T10:24:55.001Z,1208
2019-02-27T10:25:36.282Z,1208
2019-02-27T10:26:19.350Z,1204
2019-02-27T10:26:57.310Z,1204
2019-02-27T10:27:38.195Z,1204
2019-02-27T10:28:18.816Z,1204
2019-02-27T10:28:59.407Z,1204
2019-02-27T11:07:15.771Z,1156
2019-02-27T11:07:55.460Z,1156
2019-02-27T11:08:35.884Z,1156
2019-02-27T11:09:17.913Z,1160
2019-02-27T11:09:58.344Z,1156
2019-02-27T11:10:38.829Z,1156
2019-02-27T11:11:19.212Z,1156
2019-02-27T11:11:59.662Z,1152
2019-02-27T11:12:40.944Z,1152
2019-02-27T11:13:21.442Z,1152
2019-02-27T11:14:03.488Z,1152
2019-02-27T11:14:43.962Z,1148
2019-02-27T11:15:24.408Z,1148
2019-02-27T11:16:04.859Z,1144
2019-02-27T11:16:45.272Z,1148
2019-02-27T11:17:25.746Z,1148
2019-02-27T11:18:06.276Z,1144
2019-02-27T11:18:46.710Z,1144
2019-02-27T11:19:28.151Z,1144
2019-02-27T11:20:09.123Z,1144
2019-02-27T11:20:49.360Z,1140
2019-02-27T11:21:29.845Z,1140
2019-02-27T11:22:10.473Z,1140
2019-02-27T11:22:51.049Z,1140
2019-02-27T11:23:31.530Z,1136
2019-02-27T11:24:14.447Z,1136
2019-02-27T11:24:52.893Z,1136
2019-02-27T11:25:33.281Z,1132
2019-02-27T11:26:13.871Z,1132
2019-02-27T11:26:56.910Z,1132
2019-02-27T11:27:36.277Z,1132
2019-02-27T11:28:16.062Z,1128
2019-02-27T11:28:57.775Z,1128